Time;durP1;ratioP1;P1;durP2;ratioP2;P2;SDS_P1;SDS_P2;PMS_P1;PMS_P2;Temp;Humidity;BMP_temperature;BMP_pressure;BME280_temperature;BME280_humidity;BME280_pressure;Samples;Min_cycle;Max_cycle;Signal;HPM_P1;HPM_P2
2021/12/20 00:01:40;;;;;;;9.90;4.63;;;;;;;;;;4995029;28;20189;-63
2021/12/20 00:04:06;;;;;;;8.70;4.27;;;;;;;;;;4995973;28;20653;-64
2021/12/20 00:06:32;;;;;;;12.07;4.20;;;;;;;;;;5000803;28;20207;-63
2021/12/20 00:08:58;;;;;;;10.77;4.03;;;;;;;;;;5005153;28;20204;-64
2021/12/20 00:11:24;;;;;;;12.43;3.63;;;;;;;;;;5007526;28;20183;-64
2021/12/20 00:13:50;;;;;;;5.13;3.50;;;;;;;;;;5002015;28;20173;-63
2021/12/20 00:16:16;;;;;;;10.67;4.40;;;;;;;;;;4996256;28;20207;-63
2021/12/20 00:18:43;;;;;;;15.13;3.80;;;;;;;;;;4995158;28;20597;-63
2021/12/20 00:21:09;;;;;;;11.23;4.30;;;;;;;;;;4994507;28;20179;-61
2021/12/20 00:23:35;;;;;;;9.20;3.33;;;;;;;;;;4994192;28;20184;-62
2021/12/20 00:26:01;;;;;;;8.73;3.67;;;;;;;;;;4994183;28;20208;-62
2021/12/20 00:28:27;;;;;;;11.97;3.00;;;;;;;;;;4994220;28;20180;-62
2021/12/20 00:30:53;;;;;;;12.33;3.13;;;;;;;;;;4992944;28;20211;-62
2021/12/20 00:33:19;;;;;;;8.13;2.77;;;;;;;;;;4994551;28;20188;-62
2021/12/20 00:35:46;;;;;;;6.93;3.10;;;;;;;;;;5023827;23;20231;-65
2021/12/20 00:40:57;;;;;;;10.30;3.33;;;;;;;;;;5014641;28;20174;-65
2021/12/20 00:43:23;;;;;;;9.60;3.40;;;;;;;;;;5014238;28;20263;-65
2021/12/20 00:45:49;;;;;;;9.93;3.70;;;;;;;;;;5012674;28;20266;-65
2021/12/20 00:48:15;;;;;;;13.97;3.63;;;;;;;;;;5013058;28;20180;-64
2021/12/20 00:50:42;;;;;;;12.57;3.73;;;;;;;;;;5014309;28;20655;-65
2021/12/20 00:53:08;;;;;;;9.30;4.00;;;;;;;;;;5012779;28;20266;-65
2021/12/20 00:55:34;;;;;;;7.17;3.00;;;;;;;;;;5012827;28;20218;-65
2021/12/20 00:58:00;;;;;;;13.47;4.53;;;;;;;;;;5012637;28;20567;-65
2021/12/20 01:00:28;;;;;;;16.57;6.93;;;;;;;;;;5012842;28;20608;-65
2021/12/20 01:02:54;;;;;;;23.43;10.27;;;;;;;;;;5012819;28;20191;-65
2021/12/20 01:05:22;;;;;;;16.77;6.30;;;;;;;;;;5012825;28;20200;-67
2021/12/20 01:07:48;;;;;;;15.47;4.33;;;;;;;;;;5012854;28;20184;-66
2021/12/20 01:10:15;;;;;;;12.83;3.70;;;;;;;;;;5012346;28;20204;-65
2021/12/20 01:12:49;;;;;;;11.80;5.30;;;;;;;;;;5013843;28;20176;-65
2021/12/20 01:15:18;;;;;;;10.73;4.67;;;;;;;;;;5013884;28;20322;-65
2021/12/20 01:17:44;;;;;;;31.17;11.20;;;;;;;;;;5014249;28;20172;-65
2021/12/20 01:20:10;;;;;;;24.57;10.03;;;;;;;;;;5013816;28;20179;-65
2021/12/20 01:22:36;;;;;;;23.83;9.00;;;;;;;;;;5014914;28;20175;-66
2021/12/20 01:25:02;;;;;;;16.30;5.60;;;;;;;;;;5014216;28;20207;-65
2021/12/20 01:27:28;;;;;;;8.83;4.17;;;;;;;;;;5017042;28;20212;-65
2021/12/20 01:29:54;;;;;;;9.77;4.43;;;;;;;;;;5017852;28;20667;-65
2021/12/20 01:32:21;;;;;;;14.17;4.17;;;;;;;;;;5017839;28;20645;-65
2021/12/20 01:34:47;;;;;;;15.60;4.70;;;;;;;;;;5017259;28;20211;-66
2021/12/20 01:37:13;;;;;;;11.33;4.10;;;;;;;;;;5015825;28;20180;-65
2021/12/20 01:39:39;;;;;;;14.03;3.97;;;;;;;;;;5017113;28;20326;-65
2021/12/20 01:42:05;;;;;;;13.33;3.97;;;;;;;;;;5017027;28;20224;-65
2021/12/20 01:44:31;;;;;;;14.17;4.63;;;;;;;;;;5017076;28;20253;-65
2021/12/20 01:47:00;;;;;;;9.90;3.53;;;;;;;;;;5015966;28;20210;-65
2021/12/20 01:49:26;;;;;;;10.37;3.20;;;;;;;;;;5015683;28;20206;-65
2021/12/20 01:54:24;;;;;;;10.10;3.00;;;;;;;;;;5016657;28;20196;-64
2021/12/20 01:56:50;;;;;;;11.77;3.10;;;;;;;;;;5016943;28;20557;-65
2021/12/20 01:59:16;;;;;;;7.87;4.07;;;;;;;;;;5017094;28;20176;-65
2021/12/20 02:01:44;;;;;;;8.93;3.87;;;;;;;;;;5015605;28;20253;-65
2021/12/20 02:04:11;;;;;;;9.87;3.20;;;;;;;;;;5016962;28;20183;-65
2021/12/20 02:06:44;;;;;;;14.63;4.00;;;;;;;;;;5015438;28;20238;-65
2021/12/20 02:09:12;;;;;;;13.73;3.77;;;;;;;;;;5016591;28;20253;-65
2021/12/20 02:11:39;;;;;;;9.90;2.90;;;;;;;;;;5016270;28;20183;-65
2021/12/20 02:14:06;;;;;;;8.87;3.30;;;;;;;;;;5016377;28;20554;-65
2021/12/20 02:16:32;;;;;;;14.93;4.00;;;;;;;;;;5017047;28;20338;-65
2021/12/20 02:19:01;;;;;;;12.63;3.47;;;;;;;;;;5015435;28;20258;-65
2021/12/20 02:21:27;;;;;;;13.77;3.73;;;;;;;;;;5016697;28;20187;-65
2021/12/20 02:23:53;;;;;;;16.97;4.77;;;;;;;;;;5016488;28;20175;-65
2021/12/20 02:26:20;;;;;;;18.30;4.03;;;;;;;;;;5015424;28;20594;-66
2021/12/20 02:28:49;;;;;;;13.57;3.57;;;;;;;;;;5016166;28;20212;-65
2021/12/20 02:39:16;;;;;;;12.50;3.50;;;;;;;;;;5016169;28;20195;-66
2021/12/20 02:41:42;;;;;;;11.77;3.43;;;;;;;;;;5015850;28;20237;-66
2021/12/20 02:44:16;;;;;;;12.07;3.37;;;;;;;;;;5016244;28;20263;-65
2021/12/20 02:47:05;;;;;;;14.67;3.60;;;;;;;;;;5015716;28;20174;-64
2021/12/20 02:49:32;;;;;;;11.63;3.33;;;;;;;;;;5014284;28;20204;-65
2021/12/20 02:52:04;;;;;;;13.00;3.67;;;;;;;;;;5015711;28;20583;-65
2021/12/20 02:54:30;;;;;;;11.53;3.27;;;;;;;;;;5015699;28;20196;-65
2021/12/20 02:56:57;;;;;;;15.47;3.27;;;;;;;;;;5015388;28;20210;-65
2021/12/20 02:59:23;;;;;;;20.10;4.00;;;;;;;;;;5015565;28;20632;-65
2021/12/20 03:01:53;;;;;;;15.63;4.03;;;;;;;;;;5015343;28;20175;-65
2021/12/20 03:04:19;;;;;;;10.43;3.50;;;;;;;;;;5014109;28;20211;-66
2021/12/20 03:06:48;;;;;;;16.07;3.80;;;;;;;;;;5013969;28;20183;-65
2021/12/20 03:09:17;;;;;;;12.17;3.93;;;;;;;;;;5014994;28;20268;-65
2021/12/20 03:11:45;;;;;;;10.43;3.27;;;;;;;;;;5013799;28;20180;-66
2021/12/20 03:14:18;;;;;;;22.50;3.10;;;;;;;;;;5015245;28;20180;-65
2021/12/20 03:16:44;;;;;;;22.13;3.40;;;;;;;;;;5015308;28;20175;-65
2021/12/20 03:19:10;;;;;;;12.87;3.27;;;;;;;;;;5015140;28;20180;-65
2021/12/20 03:21:36;;;;;;;13.97;3.40;;;;;;;;;;5015134;28;20258;-65
2021/12/20 03:24:02;;;;;;;12.50;3.50;;;;;;;;;;5013784;28;20670;-65
2021/12/20 03:26:28;;;;;;;12.63;3.63;;;;;;;;;;5013820;28;20183;-65
2021/12/20 03:28:54;;;;;;;12.87;3.90;;;;;;;;;;5015303;28;20267;-66
2021/12/20 03:31:20;;;;;;;12.00;3.27;;;;;;;;;;5022014;28;20183;-66
2021/12/20 03:33:46;;;;;;;17.87;3.83;;;;;;;;;;5031222;28;20183;-66
2021/12/20 03:36:12;;;;;;;13.90;3.50;;;;;;;;;;5031335;28;20249;-65
2021/12/20 03:38:38;;;;;;;15.27;3.37;;;;;;;;;;5030986;28;20172;-65
2021/12/20 03:41:04;;;;;;;11.10;3.30;;;;;;;;;;5021815;28;20180;-65
2021/12/20 03:43:31;;;;;;;12.00;3.27;;;;;;;;;;5016440;28;20234;-64
2021/12/20 03:46:01;;;;;;;17.63;3.83;;;;;;;;;;5015151;28;20223;-67
2021/12/20 03:48:27;;;;;;;15.57;3.47;;;;;;;;;;5015070;28;20235;-65
2021/12/20 03:50:53;;;;;;;16.87;3.30;;;;;;;;;;5013639;28;20568;-65
2021/12/20 03:53:19;;;;;;;13.73;3.67;;;;;;;;;;5014653;28;20208;-65
2021/12/20 03:55:46;;;;;;;14.27;3.40;;;;;;;;;;5014647;28;20199;-65
2021/12/20 03:58:12;;;;;;;13.00;3.53;;;;;;;;;;5015564;28;20263;-65
2021/12/20 04:00:38;;;;;;;12.10;3.23;;;;;;;;;;5014991;28;20266;-65
2021/12/20 04:03:09;;;;;;;13.00;3.67;;;;;;;;;;5014627;28;20330;-65
2021/12/20 04:05:35;;;;;;;12.70;3.17;;;;;;;;;;5014383;28;20196;-65
2021/12/20 04:08:01;;;;;;;13.80;3.17;;;;;;;;;;5012823;28;20659;-65
2021/12/20 04:10:27;;;;;;;14.93;3.27;;;;;;;;;;5014238;28;20286;-65
2021/12/20 04:12:53;;;;;;;17.77;4.53;;;;;;;;;;5012800;28;20179;-65
2021/12/20 04:15:19;;;;;;;13.43;3.73;;;;;;;;;;5014178;28;20193;-65
2021/12/20 04:17:45;;;;;;;10.47;3.77;;;;;;;;;;5012988;28;20652;-65
2021/12/20 04:20:11;;;;;;;14.63;4.20;;;;;;;;;;5013650;28;20714;-65
2021/12/20 04:22:37;;;;;;;18.00;4.63;;;;;;;;;;5014684;28;20274;-66
2021/12/20 04:25:03;;;;;;;13.27;3.40;;;;;;;;;;5014228;28;20223;-65
2021/12/20 04:27:30;;;;;;;17.73;3.73;;;;;;;;;;5014098;28;20180;-65
2021/12/20 04:29:56;;;;;;;16.40;3.90;;;;;;;;;;5014283;28;20212;-65
2021/12/20 04:32:22;;;;;;;12.13;3.30;;;;;;;;;;5014450;28;20242;-65
2021/12/20 04:34:48;;;;;;;13.77;3.00;;;;;;;;;;5014309;28;20218;-65
2021/12/20 04:37:14;;;;;;;16.07;3.80;;;;;;;;;;5013152;28;20176;-65
2021/12/20 04:39:40;;;;;;;11.23;3.47;;;;;;;;;;5013756;28;20191;-65
2021/12/20 04:42:08;;;;;;;15.73;3.40;;;;;;;;;;5015370;28;20183;-65
2021/12/20 04:44:34;;;;;;;16.17;4.37;;;;;;;;;;5013076;28;20200;-65
2021/12/20 04:47:00;;;;;;;12.87;3.63;;;;;;;;;;5013986;28;20191;-65
2021/12/20 04:49:26;;;;;;;14.40;3.87;;;;;;;;;;5012413;28;20208;-65
2021/12/20 04:51:56;;;;;;;15.13;4.00;;;;;;;;;;5012409;28;20184;-65
2021/12/20 04:54:22;;;;;;;21.20;4.67;;;;;;;;;;5013733;28;20677;-65
2021/12/20 04:56:48;;;;;;;16.17;3.90;;;;;;;;;;5012131;28;20180;-65
2021/12/20 04:59:14;;;;;;;17.33;4.03;;;;;;;;;;5012488;28;20183;-65
2021/12/20 05:01:40;;;;;;;15.30;4.00;;;;;;;;;;5016937;28;20271;-65
2021/12/20 05:04:06;;;;;;;15.63;4.07;;;;;;;;;;5015813;28;20184;-65
2021/12/20 05:06:33;;;;;;;15.03;4.10;;;;;;;;;;5017285;28;20187;-65
2021/12/20 05:09:01;;;;;;;16.83;4.50;;;;;;;;;;5015787;28;20237;-66
2021/12/20 05:11:29;;;;;;;14.93;3.60;;;;;;;;;;5015963;28;20187;-65
2021/12/20 05:13:55;;;;;;;17.87;4.30;;;;;;;;;;5017474;28;20176;-65
2021/12/20 05:16:21;;;;;;;14.97;4.60;;;;;;;;;;5017150;28;20205;-65
2021/12/20 05:18:47;;;;;;;9.63;3.50;;;;;;;;;;5017458;28;20182;-65
2021/12/20 05:21:13;;;;;;;18.03;4.33;;;;;;;;;;5017276;28;20544;-65
2021/12/20 05:23:39;;;;;;;10.20;3.63;;;;;;;;;;5017012;28;20184;-65
2021/12/20 05:26:05;;;;;;;13.23;4.03;;;;;;;;;;5016836;28;20195;-65
2021/12/20 05:28:31;;;;;;;22.00;4.37;;;;;;;;;;5015470;28;20242;-65
2021/12/20 05:30:57;;;;;;;16.07;3.67;;;;;;;;;;5016806;28;20253;-65
2021/12/20 05:33:23;;;;;;;13.23;3.77;;;;;;;;;;5016970;28;20179;-65
2021/12/20 05:35:50;;;;;;;15.90;4.30;;;;;;;;;;5016660;28;20757;-65
2021/12/20 05:38:16;;;;;;;14.90;3.80;;;;;;;;;;5015447;28;20184;-65
2021/12/20 05:40:42;;;;;;;16.93;4.70;;;;;;;;;;5015677;28;20242;-65
2021/12/20 05:43:08;;;;;;;12.60;4.83;;;;;;;;;;5015330;28;20283;-65
2021/12/20 05:45:34;;;;;;;11.47;4.70;;;;;;;;;;5016779;28;20217;-65
2021/12/20 05:48:00;;;;;;;15.60;4.20;;;;;;;;;;5015453;28;20190;-65
2021/12/20 05:50:26;;;;;;;13.80;3.60;;;;;;;;;;5015333;28;20239;-65
2021/12/20 05:52:52;;;;;;;15.63;4.07;;;;;;;;;;5017022;28;20256;-65
2021/12/20 05:55:18;;;;;;;16.27;4.03;;;;;;;;;;5016212;28;20199;-65
2021/12/20 05:57:45;;;;;;;20.30;4.40;;;;;;;;;;5015312;28;20183;-64
2021/12/20 06:00:12;;;;;;;22.10;6.10;;;;;;;;;;5016321;28;20277;-65
2021/12/20 06:02:39;;;;;;;15.00;4.40;;;;;;;;;;5014954;28;20195;-65
2021/12/20 06:05:05;;;;;;;16.57;4.50;;;;;;;;;;5016465;28;20231;-65
2021/12/20 06:07:31;;;;;;;16.23;4.03;;;;;;;;;;5016386;28;20180;-65
2021/12/20 06:09:57;;;;;;;18.70;4.10;;;;;;;;;;5014912;28;20298;-65
2021/12/20 06:12:23;;;;;;;26.57;5.10;;;;;;;;;;5013686;28;20270;-65
2021/12/20 06:14:49;;;;;;;24.77;4.30;;;;;;;;;;5014703;28;20254;-65
2021/12/20 06:17:15;;;;;;;16.87;4.00;;;;;;;;;;5015908;28;20234;-65
2021/12/20 06:19:41;;;;;;;14.73;4.03;;;;;;;;;;5014844;28;20184;-65
2021/12/20 06:22:10;;;;;;;19.67;4.03;;;;;;;;;;5014727;28;20188;-65
2021/12/20 06:24:36;;;;;;;18.23;4.20;;;;;;;;;;5016153;28;20547;-65
2021/12/20 06:27:02;;;;;;;27.43;4.80;;;;;;;;;;5015994;28;20179;-65
2021/12/20 06:29:28;;;;;;;18.37;3.97;;;;;;;;;;5015898;28;20261;-65
2021/12/20 06:31:54;;;;;;;25.67;4.73;;;;;;;;;;5014278;28;20182;-65
2021/12/20 06:34:20;;;;;;;17.53;4.50;;;;;;;;;;5014690;28;20179;-65
2021/12/20 06:36:46;;;;;;;19.40;4.63;;;;;;;;;;5014591;28;20183;-65
2021/12/20 06:39:12;;;;;;;17.07;4.30;;;;;;;;;;5014572;28;20203;-65
2021/12/20 06:41:38;;;;;;;19.23;4.70;;;;;;;;;;5014536;28;20184;-65
2021/12/20 06:44:04;;;;;;;19.07;5.13;;;;;;;;;;5014581;28;20192;-65
2021/12/20 06:46:31;;;;;;;20.87;4.40;;;;;;;;;;5015532;28;20184;-65
2021/12/20 06:48:57;;;;;;;22.17;5.07;;;;;;;;;;5014604;28;20222;-65
2021/12/20 06:51:23;;;;;;;20.40;4.60;;;;;;;;;;5015479;28;20617;-65
2021/12/20 06:53:49;;;;;;;24.03;4.80;;;;;;;;;;5015786;28;20230;-65
2021/12/20 06:56:15;;;;;;;16.73;4.97;;;;;;;;;;5015425;28;20231;-65
2021/12/20 06:58:41;;;;;;;13.60;3.83;;;;;;;;;;5015782;28;20180;-65
2021/12/20 07:01:07;;;;;;;27.60;5.63;;;;;;;;;;5016381;28;20184;-65
2021/12/20 07:03:33;;;;;;;19.93;5.13;;;;;;;;;;5017113;28;20263;-65
2021/12/20 07:05:59;;;;;;;24.80;5.20;;;;;;;;;;5016967;28;20600;-66
2021/12/20 07:08:25;;;;;;;21.90;5.00;;;;;;;;;;5015859;28;20176;-65
2021/12/20 07:10:51;;;;;;;25.90;5.50;;;;;;;;;;5014125;28;20253;-65
2021/12/20 07:13:17;;;;;;;13.23;3.90;;;;;;;;;;5013882;28;20633;-65
2021/12/20 07:15:43;;;;;;;18.60;4.47;;;;;;;;;;5015009;28;20210;-65
2021/12/20 07:18:09;;;;;;;20.33;5.67;;;;;;;;;;5014422;28;20184;-65
2021/12/20 07:20:35;;;;;;;23.23;5.63;;;;;;;;;;5015384;28;20184;-65
2021/12/20 07:23:01;;;;;;;22.17;5.50;;;;;;;;;;5013332;28;20310;-65
2021/12/20 07:25:27;;;;;;;22.13;5.57;;;;;;;;;;5013423;28;20284;-65
2021/12/20 07:27:53;;;;;;;20.57;5.67;;;;;;;;;;5014938;28;20580;-65
2021/12/20 07:30:20;;;;;;;21.00;5.17;;;;;;;;;;5014873;28;20199;-65
2021/12/20 07:32:46;;;;;;;26.93;5.47;;;;;;;;;;5014808;28;20180;-64
2021/12/20 07:35:12;;;;;;;19.43;5.33;;;;;;;;;;5013245;28;20342;-65
2021/12/20 07:37:39;;;;;;;27.30;4.80;;;;;;;;;;5013324;28;20191;-65
2021/12/20 07:40:07;;;;;;;26.43;5.47;;;;;;;;;;5014716;28;20184;-65
2021/12/20 07:42:33;;;;;;;27.00;5.73;;;;;;;;;;5014600;28;20323;-66
2021/12/20 07:44:59;;;;;;;22.73;5.47;;;;;;;;;;5015750;28;20226;-65
2021/12/20 07:47:25;;;;;;;29.80;6.20;;;;;;;;;;5013376;28;20640;-65
2021/12/20 07:49:51;;;;;;;18.30;4.97;;;;;;;;;;5015151;28;20258;-65
2021/12/20 07:52:17;;;;;;;16.17;5.27;;;;;;;;;;5017010;28;20180;-66
2021/12/20 07:54:43;;;;;;;21.37;4.93;;;;;;;;;;5016654;28;20600;-65
2021/12/20 07:57:09;;;;;;;27.23;5.90;;;;;;;;;;5014571;28;20179;-65
2021/12/20 07:59:35;;;;;;;22.40;5.57;;;;;;;;;;5013264;28;20190;-65
2021/12/20 08:02:01;;;;;;;31.73;6.17;;;;;;;;;;5014609;28;20192;-65
2021/12/20 08:04:27;;;;;;;20.50;6.17;;;;;;;;;;5014658;28;20203;-64
2021/12/20 08:06:53;;;;;;;28.93;6.43;;;;;;;;;;5014567;28;20187;-65
2021/12/20 08:09:19;;;;;;;32.10;7.13;;;;;;;;;;5014383;28;20207;-65
2021/12/20 08:11:45;;;;;;;25.60;6.90;;;;;;;;;;5014468;28;20636;-65
2021/12/20 08:14:11;;;;;;;29.20;5.47;;;;;;;;;;5015276;28;20180;-65
2021/12/20 08:16:37;;;;;;;28.93;7.07;;;;;;;;;;5014036;28;20187;-65
2021/12/20 08:19:03;;;;;;;37.13;9.00;;;;;;;;;;5015256;28;20182;-65
2021/12/20 08:21:29;;;;;;;30.50;9.03;;;;;;;;;;5015325;28;20222;-65
2021/12/20 08:23:55;;;;;;;33.63;8.60;;;;;;;;;;5014702;28;20538;-65
2021/12/20 08:26:21;;;;;;;25.27;6.20;;;;;;;;;;5014844;28;20199;-65
2021/12/20 08:28:47;;;;;;;33.00;6.77;;;;;;;;;;5014884;28;20250;-65
2021/12/20 08:31:13;;;;;;;19.47;5.53;;;;;;;;;;5013507;28;20261;-65
2021/12/20 08:33:39;;;;;;;34.30;6.63;;;;;;;;;;5013006;28;20266;-65
2021/12/20 08:36:12;;;;;;;24.73;6.00;;;;;;;;;;5015618;28;20682;-65
2021/12/20 08:38:38;;;;;;;34.10;7.40;;;;;;;;;;5018437;28;20168;-65
2021/12/20 08:41:04;;;;;;;28.77;6.90;;;;;;;;;;5019016;28;20538;-65
2021/12/20 08:43:30;;;;;;;28.13;6.33;;;;;;;;;;5017670;28;20183;-65
2021/12/20 08:45:59;;;;;;;26.73;6.07;;;;;;;;;;5019338;28;20341;-66
2021/12/20 08:48:25;;;;;;;23.47;6.77;;;;;;;;;;5019463;28;20175;-65
2021/12/20 08:50:51;;;;;;;30.90;7.23;;;;;;;;;;5017122;28;20230;-65
2021/12/20 08:53:17;;;;;;;28.27;6.10;;;;;;;;;;5020493;28;20618;-65
2021/12/20 08:55:43;;;;;;;27.77;5.93;;;;;;;;;;5018490;28;20196;-65
2021/12/20 08:58:09;;;;;;;23.83;5.73;;;;;;;;;;5018210;28;20683;-66
2021/12/20 09:00:36;;;;;;;24.63;6.40;;;;;;;;;;5018577;28;20175;-65
2021/12/20 09:03:03;;;;;;;28.33;6.53;;;;;;;;;;5018522;28;20188;-65
2021/12/20 09:05:29;;;;;;;17.03;5.87;;;;;;;;;;5017880;28;20196;-65
2021/12/20 09:07:59;;;;;;;21.40;6.03;;;;;;;;;;5018128;28;20202;-65
2021/12/20 09:10:25;;;;;;;23.77;6.20;;;;;;;;;;5017200;28;20207;-65
2021/12/20 09:12:51;;;;;;;19.47;6.60;;;;;;;;;;5019311;28;20230;-65
2021/12/20 09:15:17;;;;;;;26.53;6.73;;;;;;;;;;5019169;28;20196;-66
2021/12/20 09:17:47;;;;;;;28.70;6.37;;;;;;;;;;5021957;28;20168;-65
2021/12/20 09:20:17;;;;;;;29.90;7.13;;;;;;;;;;5023712;28;20191;-65
2021/12/20 09:22:53;;;;;;;21.67;6.17;;;;;;;;;;5024660;28;20229;-65
2021/12/20 09:25:23;;;;;;;22.17;6.00;;;;;;;;;;5021676;28;20639;-65
2021/12/20 09:27:50;;;;;;;26.17;6.70;;;;;;;;;;5023635;28;20230;-65
2021/12/20 09:30:16;;;;;;;20.10;5.93;;;;;;;;;;5024880;28;20287;-65
2021/12/20 09:32:42;;;;;;;26.83;6.77;;;;;;;;;;5026917;28;20180;-65
2021/12/20 09:35:08;;;;;;;25.83;6.47;;;;;;;;;;5030071;28;20218;-65
2021/12/20 09:37:34;;;;;;;23.33;6.33;;;;;;;;;;5027089;28;20176;-65
2021/12/20 09:40:00;;;;;;;24.40;6.87;;;;;;;;;;5028930;28;20679;-65
2021/12/20 09:42:26;;;;;;;30.03;7.43;;;;;;;;;;5033198;28;20239;-67
2021/12/20 09:44:56;;;;;;;25.33;7.13;;;;;;;;;;5032460;28;20199;-65
2021/12/20 09:47:22;;;;;;;27.27;7.77;;;;;;;;;;5031609;28;20184;-65
2021/12/20 09:49:47;;;;;;;30.63;7.50;;;;;;;;;;5022825;28;20214;-65
2021/12/20 09:52:13;;;;;;;22.73;7.50;;;;;;;;;;5038933;23;20230;-65
2021/12/20 09:54:40;;;;;;;25.43;7.57;;;;;;;;;;5023304;28;20266;-68
2021/12/20 09:57:10;;;;;;;24.07;6.83;;;;;;;;;;5024028;28;20179;-63
2021/12/20 09:59:37;;;;;;;20.50;5.13;;;;;;;;;;5041508;28;20667;-64
2021/12/20 10:02:06;;;;;;;28.67;7.17;;;;;;;;;;5041159;28;20206;-64
2021/12/20 10:04:32;;;;;;;29.20;7.83;;;;;;;;;;5024083;28;20187;-64
2021/12/20 10:07:00;;;;;;;20.43;6.97;;;;;;;;;;5023599;28;20179;-63
2021/12/20 10:09:30;;;;;;;17.67;6.30;;;;;;;;;;5023564;28;20587;-64
2021/12/20 10:12:22;;;;;;;25.53;7.27;;;;;;;;;;5041338;28;20608;-63
2021/12/20 10:14:52;;;;;;;19.07;6.20;;;;;;;;;;5037505;28;20195;-63
2021/12/20 10:17:18;;;;;;;25.97;6.63;;;;;;;;;;5041598;28;20182;-66
2021/12/20 10:19:44;;;;;;;18.30;5.90;;;;;;;;;;5041044;28;20179;-62
2021/12/20 10:22:25;;;;;;;19.07;6.37;;;;;;;;;;5041246;28;20234;-62
2021/12/20 10:24:51;;;;;;;25.57;6.53;;;;;;;;;;5023053;28;20190;-62
2021/12/20 10:27:30;;;;;;;27.93;6.90;;;;;;;;;;5041126;28;20198;-62
2021/12/20 10:29:56;;;;;;;25.33;7.20;;;;;;;;;;5040576;28;20674;-63
2021/12/20 10:32:48;;;;;;;16.10;6.03;;;;;;;;;;5040586;28;20667;-64
2021/12/20 10:35:41;;;;;;;26.07;7.00;;;;;;;;;;5036852;28;20192;-63
2021/12/20 10:38:20;;;;;;;22.07;6.73;;;;;;;;;;5019274;28;20202;-62
2021/12/20 10:41:07;;;;;;;15.63;6.13;;;;;;;;;;5040412;28;20254;-62
2021/12/20 10:43:36;;;;;;;19.40;6.73;;;;;;;;;;5039807;28;20733;-67
2021/12/20 10:46:09;;;;;;;18.97;6.37;;;;;;;;;;5040517;28;20175;-62
2021/12/20 10:48:35;;;;;;;21.77;7.20;;;;;;;;;;5040169;28;20194;-63
2021/12/20 10:51:01;;;;;;;22.47;7.97;;;;;;;;;;5039264;28;20210;-64
2021/12/20 10:53:27;;;;;;;29.23;8.40;;;;;;;;;;5040166;28;20182;-64
2021/12/20 10:55:56;;;;;;;21.80;7.13;;;;;;;;;;5039638;28;20184;-63
2021/12/20 10:58:29;;;;;;;26.70;7.57;;;;;;;;;;5038412;28;20176;-63
2021/12/20 11:01:01;;;;;;;27.27;8.23;;;;;;;;;;5039594;28;20651;-64
2021/12/20 11:03:29;;;;;;;22.93;7.20;;;;;;;;;;5021685;28;20209;-63
2021/12/20 11:06:24;;;;;;;21.97;7.07;;;;;;;;;;5039520;28;20207;-64
2021/12/20 11:09:05;;;;;;;21.83;6.97;;;;;;;;;;5022353;28;20179;-66
2021/12/20 11:11:39;;;;;;;18.57;5.57;;;;;;;;;;5039553;28;20202;-64
2021/12/20 11:14:06;;;;;;;14.60;5.77;;;;;;;;;;5022177;28;20183;-64
2021/12/20 11:16:32;;;;;;;20.83;5.83;;;;;;;;;;5040590;28;20179;-65
2021/12/20 11:19:15;;;;;;;19.27;6.30;;;;;;;;;;5040047;28;20171;-68
2021/12/20 11:21:50;;;;;;;20.90;6.43;;;;;;;;;;5039937;28;20190;-64
2021/12/20 11:24:17;;;;;;;25.50;5.83;;;;;;;;;;5039427;28;20234;-63
2021/12/20 11:26:43;;;;;;;20.47;5.50;;;;;;;;;;5021629;28;20203;-63
2021/12/20 11:29:10;;;;;;;21.40;5.27;;;;;;;;;;5039133;28;20175;-68
2021/12/20 11:31:37;;;;;;;17.63;4.57;;;;;;;;;;5039928;28;20215;-63
2021/12/20 11:34:03;;;;;;;15.83;4.60;;;;;;;;;;5039710;28;20207;-63
2021/12/20 11:36:30;;;;;;;23.03;4.57;;;;;;;;;;5039885;28;20175;-64
2021/12/20 11:38:58;;;;;;;19.33;5.37;;;;;;;;;;5039710;28;20179;-64
2021/12/20 11:41:26;;;;;;;16.83;4.97;;;;;;;;;;5039858;28;20217;-65
2021/12/20 11:43:52;;;;;;;21.03;6.10;;;;;;;;;;5039735;28;20207;-64
2021/12/20 11:46:21;;;;;;;14.83;5.10;;;;;;;;;;5021781;28;20274;-64
2021/12/20 11:48:47;;;;;;;13.27;5.47;;;;;;;;;;5021387;28;20205;-63
2021/12/20 11:51:13;;;;;;;11.83;4.20;;;;;;;;;;5020741;28;20770;-70
2021/12/20 11:53:40;;;;;;;14.40;5.50;;;;;;;;;;5038632;28;20187;-63
2021/12/20 11:56:07;;;;;;;14.13;5.17;;;;;;;;;;5038504;28;20176;-64
2021/12/20 11:58:33;;;;;;;21.00;5.00;;;;;;;;;;5037921;28;20179;-64
2021/12/20 12:01:01;;;;;;;23.77;6.23;;;;;;;;;;5038969;28;20195;-66
2021/12/20 12:03:31;;;;;;;10.97;4.07;;;;;;;;;;5038742;28;20194;-64
2021/12/20 12:06:04;;;;;;;8.50;3.27;;;;;;;;;;5021421;28;20179;-64
2021/12/20 12:08:33;;;;;;;12.77;3.70;;;;;;;;;;5039355;28;20234;-63
2021/12/20 12:11:02;;;;;;;11.10;3.73;;;;;;;;;;5039033;28;20206;-64
2021/12/20 12:13:35;;;;;;;9.20;3.57;;;;;;;;;;5039508;28;20195;-63
2021/12/20 12:16:04;;;;;;;10.60;3.30;;;;;;;;;;5039313;28;20160;-69
2021/12/20 12:18:50;;;;;;;11.17;3.83;;;;;;;;;;5021376;28;20204;-63
2021/12/20 12:21:37;;;;;;;10.07;2.87;;;;;;;;;;5039647;28;20265;-65
2021/12/20 12:24:14;;;;;;;8.57;2.90;;;;;;;;;;5038926;28;20197;-69
2021/12/20 12:26:42;;;;;;;7.07;2.43;;;;;;;;;;5038801;28;20159;-60
2021/12/20 12:29:16;;;;;;;11.77;3.17;;;;;;;;;;5038675;28;20183;-65
2021/12/20 12:31:53;;;;;;;4.73;2.03;;;;;;;;;;5038035;28;20206;-65
2021/12/20 12:34:20;;;;;;;3.60;2.03;;;;;;;;;;5021429;28;20175;-63
2021/12/20 12:36:46;;;;;;;10.57;3.23;;;;;;;;;;5020890;28;20245;-63
2021/12/20 12:39:21;;;;;;;5.03;2.10;;;;;;;;;;5020483;28;20187;-63
2021/12/20 12:41:49;;;;;;;6.33;2.00;;;;;;;;;;5038016;28;20266;-63
2021/12/20 12:44:22;;;;;;;5.17;1.97;;;;;;;;;;5020531;28;20658;-64
2021/12/20 12:46:49;;;;;;;5.17;1.67;;;;;;;;;;5020800;28;20713;-64
2021/12/20 12:49:21;;;;;;;5.63;1.73;;;;;;;;;;5019928;28;20179;-63
2021/12/20 12:51:55;;;;;;;4.80;1.83;;;;;;;;;;5037884;28;20215;-63
2021/12/20 12:54:33;;;;;;;6.87;1.70;;;;;;;;;;5038257;28;20209;-68
2021/12/20 12:57:08;;;;;;;6.87;2.00;;;;;;;;;;5038541;28;20186;-65
2021/12/20 12:59:34;;;;;;;6.23;1.83;;;;;;;;;;5020881;28;20179;-65
2021/12/20 13:02:09;;;;;;;7.90;2.10;;;;;;;;;;5038610;28;20207;-63
2021/12/20 13:04:48;;;;;;;4.87;2.27;;;;;;;;;;5037842;28;20174;-64
2021/12/20 13:07:18;;;;;;;7.30;2.13;;;;;;;;;;5020099;28;20187;-62
2021/12/20 13:09:46;;;;;;;8.20;2.40;;;;;;;;;;5038143;28;20203;-64
2021/12/20 13:12:16;;;;;;;6.53;1.80;;;;;;;;;;5037772;28;20195;-63
2021/12/20 13:15:04;;;;;;;3.77;2.00;;;;;;;;;;5020547;28;20185;-64
2021/12/20 13:17:50;;;;;;;6.13;2.07;;;;;;;;;;5038000;28;20159;-65
2021/12/20 13:20:22;;;;;;;11.53;2.30;;;;;;;;;;5020277;28;20563;-64
2021/12/20 13:22:55;;;;;;;4.30;1.57;;;;;;;;;;5023370;28;20203;-64
2021/12/20 13:25:37;;;;;;;4.83;2.30;;;;;;;;;;5024140;28;20240;-64
2021/12/20 13:28:04;;;;;;;6.80;2.23;;;;;;;;;;5023507;28;20194;-65
2021/12/20 13:30:36;;;;;;;5.33;2.00;;;;;;;;;;5040547;28;20222;-65
2021/12/20 13:33:02;;;;;;;8.67;2.30;;;;;;;;;;5040816;28;20191;-65
2021/12/20 13:35:29;;;;;;;5.40;1.87;;;;;;;;;;5041497;28;20183;-66
2021/12/20 13:38:16;;;;;;;8.83;2.70;;;;;;;;;;5041050;28;20276;-63
2021/12/20 13:41:01;;;;;;;4.03;2.30;;;;;;;;;;5040868;28;20179;-64
2021/12/20 13:43:35;;;;;;;8.07;1.87;;;;;;;;;;5023405;28;20176;-64
2021/12/20 13:46:05;;;;;;;5.50;2.00;;;;;;;;;;5041830;28;20225;-63
2021/12/20 13:48:32;;;;;;;4.47;1.90;;;;;;;;;;5024714;28;20210;-64
2021/12/20 13:50:58;;;;;;;4.63;2.30;;;;;;;;;;5040747;28;20713;-64
2021/12/20 13:53:29;;;;;;;10.93;3.20;;;;;;;;;;5040978;28;20647;-63
2021/12/20 13:55:56;;;;;;;4.97;1.90;;;;;;;;;;5041544;28;20179;-67
2021/12/20 13:58:22;;;;;;;3.73;1.93;;;;;;;;;;5022817;28;20202;-64
2021/12/20 14:00:48;;;;;;;8.27;2.30;;;;;;;;;;5022763;28;20187;-65
2021/12/20 14:03:14;;;;;;;4.63;2.30;;;;;;;;;;5040052;28;20187;-66
2021/12/20 14:05:40;;;;;;;6.67;2.27;;;;;;;;;;5038962;28;20257;-65
2021/12/20 14:08:14;;;;;;;7.83;2.43;;;;;;;;;;5040181;28;20191;-65
2021/12/20 14:10:40;;;;;;;4.37;2.00;;;;;;;;;;5022691;28;20693;-65
2021/12/20 14:13:15;;;;;;;9.80;2.57;;;;;;;;;;5039934;28;20181;-65
2021/12/20 14:15:44;;;;;;;8.83;2.40;;;;;;;;;;5022640;28;20166;-64
2021/12/20 14:18:16;;;;;;;7.97;3.07;;;;;;;;;;5041119;28;20181;-63
2021/12/20 14:20:42;;;;;;;11.53;2.37;;;;;;;;;;5023602;28;20755;-64
2021/12/20 14:23:19;;;;;;;9.30;2.57;;;;;;;;;;5022119;28;20560;-65
2021/12/20 14:25:49;;;;;;;9.70;2.67;;;;;;;;;;5021914;28;20183;-71
2021/12/20 14:28:17;;;;;;;7.97;2.23;;;;;;;;;;5023441;28;20179;-64
2021/12/20 14:30:48;;;;;;;9.33;2.40;;;;;;;;;;5040201;28;20260;-65
2021/12/20 14:33:19;;;;;;;9.77;2.53;;;;;;;;;;5021646;28;20211;-64
2021/12/20 14:35:58;;;;;;;6.40;2.37;;;;;;;;;;5040431;28;20175;-61
2021/12/20 14:38:32;;;;;;;7.10;2.40;;;;;;;;;;5040720;28;20183;-65
2021/12/20 14:40:59;;;;;;;7.43;2.07;;;;;;;;;;5039750;28;20206;-68
2021/12/20 14:43:32;;;;;;;5.63;2.33;;;;;;;;;;5040221;28;20218;-64
2021/12/20 14:46:09;;;;;;;9.83;2.80;;;;;;;;;;5039354;28;20181;-64
2021/12/20 14:48:46;;;;;;;9.33;2.73;;;;;;;;;;5039678;28;20175;-64
2021/12/20 14:51:16;;;;;;;6.37;2.13;;;;;;;;;;5038979;28;20240;-64
2021/12/20 14:53:42;;;;;;;5.03;1.77;;;;;;;;;;5039164;28;20601;-64